Time;durP1;ratioP1;P1;durP2;ratioP2;P2;SDS_P1;SDS_P2;PMS_P1;PMS_P2;Temp;Humidity;BMP_temperature;BMP_pressure;BME280_temperature;BME280_humidity;BME280_pressure;Samples;Min_cycle;Max_cycle;Signal;HPM_P1;HPM_P2
2021/09/27 00:00:48;;;;;;;9.32;7.82;;;;;;;17.42;68.68;100753.03;4903072;28;126327;-61
2021/09/27 00:03:14;;;;;;;8.38;7.57;;;;;;;17.42;68.85;100744.84;4903996;28;98206;-60
2021/09/27 00:05:41;;;;;;;8.57;7.70;;;;;;;17.42;69.07;100742.13;4903973;28;119609;-60
2021/09/27 00:08:07;;;;;;;9.35;7.97;;;;;;;17.41;69.06;100745.97;4900961;28;122363;-60
2021/09/27 00:10:45;;;;;;;8.98;8.15;;;;;;;17.41;68.93;100745.16;4905096;28;97797;-61
2021/09/27 00:13:11;;;;;;;8.38;7.57;;;;;;;17.42;69.22;100754.94;4917610;28;98067;-61
2021/09/27 00:15:44;;;;;;;9.02;8.13;;;;;;;17.41;68.95;100748.69;4923213;28;112296;-60
2021/09/27 00:18:11;;;;;;;8.60;7.55;;;;;;;17.45;69.27;100748.06;4923910;28;111963;-61
2021/09/27 00:20:45;;;;;;;8.68;7.85;;;;;;;17.43;69.04;100751.09;4905609;28;98575;-61
2021/09/27 00:23:11;;;;;;;8.80;7.85;;;;;;;17.45;69.24;100748.91;4921252;28;97858;-61
2021/09/27 00:25:37;;;;;;;8.90;8.00;;;;;;;17.45;69.11;100759.78;4923735;28;98540;-60
2021/09/27 00:28:03;;;;;;;8.93;8.02;;;;;;;17.45;69.41;100759.78;4922019;28;114758;-60
2021/09/27 00:30:29;;;;;;;8.75;7.85;;;;;;;17.45;69.55;100756.22;4923192;28;118592;-60
2021/09/27 00:32:56;;;;;;;9.93;7.78;;;;;;;17.45;69.45;100756.22;4923008;28;117822;-60
2021/09/27 00:35:28;;;;;;;9.48;7.60;;;;;;;17.43;69.38;100764.72;4924180;28;98663;-60
2021/09/27 00:37:54;;;;;;;8.75;7.85;;;;;;;17.43;69.63;100754.63;4922909;28;116690;-60
2021/09/27 00:40:29;;;;;;;10.82;8.15;;;;;;;17.41;69.53;100761.50;4923297;28;98185;-59
2021/09/27 00:42:55;;;;;;;8.63;7.82;;;;;;;17.42;69.71;100755.75;4922606;28;97777;-60
2021/09/27 00:45:25;;;;;;;8.82;7.93;;;;;;;17.43;69.88;100756.56;4923815;28;98642;-61
2021/09/27 00:47:51;;;;;;;8.70;7.90;;;;;;;17.46;69.83;100757.88;4924334;28;98767;-60
2021/09/27 00:50:21;;;;;;;8.63;7.78;;;;;;;17.46;70.12;100766.03;4923467;28;103495;-61
2021/09/27 00:52:47;;;;;;;8.68;7.75;;;;;;;17.46;70.11;100755.94;4905087;28;97947;-60
2021/09/27 00:55:17;;;;;;;8.65;7.75;;;;;;;17.46;70.12;100757.88;4920431;28;125655;-61
2021/09/27 00:57:43;;;;;;;9.05;8.23;;;;;;;17.46;69.99;100761.41;4921914;28;112861;-60
2021/09/27 01:00:11;;;;;;;8.45;7.30;;;;;;;17.45;70.19;100754.34;4905064;28;118562;-61
2021/09/27 01:02:37;;;;;;;8.52;7.72;;;;;;;17.45;70.12;100767.97;4922755;28;98295;-60
2021/09/27 01:05:06;;;;;;;8.40;7.35;;;;;;;17.44;70.28;100766.34;4922125;28;128818;-60
2021/09/27 01:07:39;;;;;;;8.90;8.00;;;;;;;17.41;70.07;100758.78;4921909;28;101478;-61
2021/09/27 01:10:39;;;;;;;8.80;7.78;;;;;;;17.39;69.98;100761.81;4921717;28;98069;-60
2021/09/27 01:14:02;;;;;;;9.13;7.57;;;;;;;17.37;69.85;100765.94;4920848;28;108372;-61
2021/09/27 01:16:43;;;;;;;8.70;7.80;;;;;;;17.37;70.05;100763.22;4921982;28;98642;-61
2021/09/27 01:19:31;;;;;;;9.05;7.75;;;;;;;17.37;70.61;100766.78;4922594;28;97834;-60
2021/09/27 01:22:13;;;;;;;10.13;7.97;;;;;;;17.36;70.39;100770.59;4922387;28;98093;-61
2021/09/27 01:25:22;;;;;;;9.05;8.18;;;;;;;17.32;70.08;100763.34;4906560;28;98105;-60
2021/09/27 01:28:11;;;;;;;9.00;8.13;;;;;;;17.29;70.28;100767.50;4922104;28;98554;-61
2021/09/27 01:31:13;;;;;;;9.02;7.78;;;;;;;17.28;70.23;100778.66;4921127;28;98623;-60
2021/09/27 01:34:03;;;;;;;10.23;7.97;;;;;;;17.28;70.58;100774.03;4921577;28;97952;-61
2021/09/27 01:37:08;;;;;;;9.30;7.97;;;;;;;17.27;70.49;100769.69;4891202;28;99015;-62
2021/09/27 01:39:52;;;;;;;8.95;8.15;;;;;;;17.29;70.71;100770.22;4920952;28;98694;-60
2021/09/27 01:42:43;;;;;;;8.80;7.90;;;;;;;17.30;70.95;100787.38;4920099;28;98516;-61
2021/09/27 01:45:26;;;;;;;8.80;8.00;;;;;;;17.28;70.57;100779.47;4907196;28;98184;-60
2021/09/27 01:48:14;;;;;;;9.23;7.65;;;;;;;17.28;70.46;100792.28;4904010;28;99855;-61
2021/09/27 01:50:49;;;;;;;9.45;7.63;;;;;;;17.29;70.69;100807.53;4903976;28;100077;-61
2021/09/27 01:53:32;;;;;;;9.18;8.23;;;;;;;17.28;70.66;100804.00;4889796;28;98412;-61
2021/09/27 01:56:03;;;;;;;;;;;;;;;17.25;70.18;100796.44;4905768;28;98107;-59
2021/09/27 01:58:54;;;;;;;10.02;9.02;;;;;;;17.20;70.31;100801.97;4920629;28;98457;-61
2021/09/27 02:01:45;;;;;;;9.43;8.52;;;;;;;17.19;70.67;100800.38;4903971;28;98984;-61
2021/09/27 02:04:21;;;;;;;8.68;7.78;;;;;;;17.18;70.86;100796.84;4922734;28;98372;-60
2021/09/27 02:06:49;;;;;;;9.65;8.75;;;;;;;17.17;70.87;100797.97;4903786;28;98304;-60
2021/09/27 02:09:25;;;;;;;10.38;8.38;;;;;;;17.15;70.83;100805.63;4922011;28;105162;-60
2021/09/27 02:11:55;;;;;;;9.35;8.35;;;;;;;17.14;71.32;100806.75;4888271;28;98420;-61
2021/09/27 02:14:42;;;;;;;9.40;8.38;;;;;;;17.11;70.88;100804.63;4888087;28;120050;-60
2021/09/27 02:17:24;;;;;;;9.20;8.30;;;;;;;17.07;70.79;100800.06;4918983;28;100526;-60
2021/09/27 02:20:21;;;;;;;8.95;8.05;;;;;;;17.03;70.87;100812.69;4905006;28;98128;-60
2021/09/27 02:23:09;;;;;;;9.68;8.43;;;;;;;16.99;71.21;100807.03;4890196;28;98659;-61
2021/09/27 02:25:37;;;;;;;9.45;8.25;;;;;;;16.95;71.37;100814.19;4906809;28;98668;-60
2021/09/27 02:28:29;;;;;;;9.23;8.32;;;;;;;16.89;70.95;100815.38;4884420;28;98527;-60
2021/09/27 02:31:36;;;;;;;9.38;8.35;;;;;;;16.85;70.99;100814.38;4912327;28;98416;-61
2021/09/27 02:34:28;;;;;;;9.43;8.52;;;;;;;16.83;70.86;100809.25;4882998;28;98082;-61
2021/09/27 02:37:05;;;;;;;9.27;8.33;;;;;;;16.80;71.05;100809.84;4904738;28;99999;-60
2021/09/27 02:39:37;;;;;;;9.30;8.40;;;;;;;16.79;71.07;100815.59;4919751;28;99069;-60
2021/09/27 02:42:17;;;;;;;9.45;8.60;;;;;;;16.74;71.25;100812.94;4902467;28;109432;-60
2021/09/27 02:44:44;;;;;;;9.32;8.38;;;;;;;16.67;71.61;100810.59;4904105;28;98362;-61
2021/09/27 02:47:10;;;;;;;10.20;8.52;;;;;;;16.63;71.59;100815.03;4918742;28;98000;-61
2021/09/27 02:49:47;;;;;;;9.27;8.15;;;;;;;16.60;71.68;100815.63;4903176;28;104553;-60
2021/09/27 02:52:16;;;;;;;9.13;8.23;;;;;;;16.57;71.67;100818.94;4920315;28;98132;-60
2021/09/27 02:55:00;;;;;;;9.63;8.73;;;;;;;16.54;71.63;100816.81;4921569;28;98518;-60
2021/09/27 02:58:09;;;;;;;8.88;8.07;;;;;;;16.50;71.26;100815.78;4904212;28;116900;-60
2021/09/27 03:01:05;;;;;;;9.40;8.50;;;;;;;16.48;71.33;100812.56;4921450;28;98605;-60
2021/09/27 03:04:03;;;;;;;10.07;9.07;;;;;;;16.45;71.46;100817.50;4921191;28;98123;-61
2021/09/27 03:06:57;;;;;;;9.50;8.60;;;;;;;16.41;71.53;100812.94;4918283;28;111186;-60
2021/09/27 03:09:54;;;;;;;9.82;8.82;;;;;;;16.38;71.61;100817.06;4904421;28;98751;-60
2021/09/27 03:12:56;;;;;;;10.57;8.88;;;;;;;16.36;71.73;100815.75;4918461;28;118164;-61
2021/09/27 03:15:59;;;;;;;10.43;9.32;;;;;;;16.31;71.63;100819.38;4919973;28;97909;-60
2021/09/27 03:18:49;;;;;;;9.63;8.60;;;;;;;16.30;71.55;100828.63;4909491;28;99447;-60
2021/09/27 03:21:39;;;;;;;9.23;8.27;;;;;;;16.30;71.65;100835.97;4922105;28;98420;-61
2021/09/27 03:24:33;;;;;;;9.75;8.85;;;;;;;16.27;71.88;100836.56;4924552;28;97938;-61
2021/09/27 03:27:28;;;;;;;10.95;9.70;;;;;;;16.23;71.47;100821.94;4924599;28;98205;-60
2021/09/27 03:30:47;;;;;;;10.55;9.23;;;;;;;16.24;71.60;100839.91;4907907;28;98831;-61
2021/09/27 03:33:57;;;;;;;10.27;9.23;;;;;;;16.22;71.60;100834.72;4923983;28;98413;-60
2021/09/27 03:36:48;;;;;;;10.05;9.13;;;;;;;16.21;71.99;100835.84;4922872;28;97782;-61
2021/09/27 03:39:36;;;;;;;9.80;8.80;;;;;;;16.20;71.63;100828.81;4925160;28;97994;-60
2021/09/27 03:42:31;;;;;;;9.52;8.60;;;;;;;16.20;72.03;100831.53;4907281;28;98145;-60
2021/09/27 03:45:10;;;;;;;9.18;8.38;;;;;;;16.21;71.81;100827.69;4922310;28;121217;-61
2021/09/27 03:47:54;;;;;;;10.55;8.40;;;;;;;16.21;71.98;100835.84;4938102;28;105702;-61
2021/09/27 03:50:39;;;;;;;10.40;9.32;;;;;;;16.19;71.95;100838.03;4922499;28;97773;-60
2021/09/27 03:53:56;;;;;;;9.77;8.82;;;;;;;16.14;71.83;100838.13;4906383;28;107961;-61
2021/09/27 03:56:42;;;;;;;9.93;8.73;;;;;;;16.11;71.79;100834.09;4910511;28;98301;-60
2021/09/27 03:59:33;;;;;;;10.15;9.20;;;;;;;16.11;72.09;100839.53;4890856;28;97979;-60
2021/09/27 04:02:43;;;;;;;11.27;10.15;;;;;;;16.09;71.96;100847.19;4922797;28;97952;-61
2021/09/27 04:05:37;;;;;;;9.73;8.82;;;;;;;16.08;72.27;100840.13;4915537;28;98496;-60
2021/09/27 04:08:24;;;;;;;10.23;9.23;;;;;;;16.07;72.25;100824.09;4904637;28;98658;-59
2021/09/27 04:11:36;;;;;;;9.82;8.82;;;;;;;16.08;71.72;100834.69;4918651;28;98064;-61
2021/09/27 04:14:33;;;;;;;10.25;9.25;;;;;;;16.07;72.13;100832.25;4898555;28;98308;-61
2021/09/27 04:17:30;;;;;;;10.43;8.73;;;;;;;16.06;72.07;100841.50;4885869;28;100745;-61
2021/09/27 04:20:31;;;;;;;10.27;8.95;;;;;;;16.07;72.06;100834.97;4904332;28;98716;-60
2021/09/27 04:23:31;;;;;;;10.18;9.18;;;;;;;16.07;71.86;100832.25;4915871;28;98231;-60
2021/09/27 04:26:49;;;;;;;9.80;8.90;;;;;;;16.06;72.04;100830.63;4921985;28;98064;-61
2021/09/27 04:29:46;;;;;;;10.85;9.55;;;;;;;16.05;71.71;100839.91;4922942;28;98772;-60
2021/09/27 04:32:55;;;;;;;11.50;9.75;;;;;;;16.03;71.99;100829.31;4923263;28;98307;-61
2021/09/27 04:35:35;;;;;;;11.68;9.90;;;;;;;16.04;72.36;100820.06;4921604;28;98045;-60
2021/09/27 04:38:06;;;;;;;11.27;10.13;;;;;;;16.07;72.79;100826.81;4923686;28;97719;-60
2021/09/27 04:41:21;;;;;;;11.05;9.73;;;;;;;16.07;72.43;100829.53;4918929;28;116122;-61
2021/09/27 04:44:25;;;;;;;11.60;10.20;;;;;;;16.06;72.36;100833.34;4911054;28;118966;-60
2021/09/27 04:47:07;;;;;;;10.88;9.77;;;;;;;16.06;72.37;100827.91;4940329;28;111303;-60
2021/09/27 04:49:43;;;;;;;12.07;10.60;;;;;;;16.06;72.65;100827.91;4920901;28;98083;-60
2021/09/27 04:52:19;;;;;;;11.80;10.70;;;;;;;16.06;72.49;100830.63;4920109;28;113809;-61
2021/09/27 04:55:14;;;;;;;11.43;10.27;;;;;;;16.05;71.85;100835.28;4905487;28;102901;-62
2021/09/27 04:58:21;;;;;;;11.00;9.85;;;;;;;16.03;72.58;100833.94;4904132;28;108264;-60
2021/09/27 05:01:18;;;;;;;11.35;10.25;;;;;;;16.03;72.71;100842.09;4920068;28;97735;-61
2021/09/27 05:04:05;;;;;;;12.10;10.90;;;;;;;16.00;72.26;100838.06;4889448;28;113407;-61
2021/09/27 05:07:07;;;;;;;11.77;9.45;;;;;;;16.00;72.38;100842.72;4916529;28;105858;-60
2021/09/27 05:09:56;;;;;;;12.60;10.32;;;;;;;16.05;73.00;100842.63;4916970;28;98489;-61
2021/09/27 05:12:48;;;;;;;12.25;10.85;;;;;;;16.03;72.63;100840.19;4918679;28;98246;-61
2021/09/27 05:15:30;;;;;;;11.98;10.75;;;;;;;16.07;72.59;100841.25;4918515;28;98867;-60
2021/09/27 05:18:54;;;;;;;12.77;10.38;;;;;;;16.09;72.45;100833.56;4916684;28;98734;-60
2021/09/27 05:21:49;;;;;;;11.70;10.50;;;;;;;16.16;72.34;100842.19;4915183;28;119218;-60
2021/09/27 05:24:29;;;;;;;10.93;9.88;;;;;;;16.22;72.33;100842.09;4917838;28;97835;-61
2021/09/27 05:27:19;;;;;;;14.57;11.18;;;;;;;16.25;72.16;100846.94;4901887;28;98243;-61
2021/09/27 05:30:25;;;;;;;11.98;10.77;;;;;;;16.30;72.19;100839.50;4916749;28;98740;-62
2021/09/27 05:33:03;;;;;;;10.80;9.70;;;;;;;16.37;72.40;100837.22;4914695;28;97895;-61
2021/09/27 05:36:14;;;;;;;11.35;10.25;;;;;;;16.46;72.16;100850.94;4913665;28;98598;-60
2021/09/27 05:39:03;;;;;;;11.77;10.52;;;;;;;16.56;72.22;100841.81;4911821;28;98555;-61
2021/09/27 05:42:18;;;;;;;11.02;10.02;;;;;;;16.62;71.80;100841.44;4914831;28;98751;-61
2021/09/27 05:45:24;;;;;;;11.63;10.63;;;;;;;16.66;71.79;100844.34;4917260;28;98252;-61
2021/09/27 05:47:58;;;;;;;11.60;10.38;;;;;;;16.67;71.84;100840.53;4897977;28;99198;-60
2021/09/27 05:50:47;;;;;;;10.48;9.55;;;;;;;16.71;71.83;100840.75;4917235;28;98702;-62
2021/09/27 05:53:31;;;;;;;12.05;10.00;;;;;;;16.74;71.99;100848.31;4946634;28;98126;-60
2021/09/27 05:56:08;;;;;;;11.07;9.73;;;;;;;16.77;72.04;100847.72;4030048;28;10000557;-61
2021/09/27 05:58:52;;;;;;;13.13;10.73;;;;;;;16.80;72.07;100849.88;4915962;28;98486;-61
2021/09/27 06:01:37;;;;;;;11.32;10.23;;;;;;;16.85;72.13;100847.03;4915974;28;98736;-60
2021/09/27 06:04:41;;;;;;;11.65;10.52;;;;;;;16.88;71.74;100844.53;4901782;28;105694;-60
2021/09/27 06:07:20;;;;;;;11.82;10.30;;;;;;;16.95;72.00;100835.97;4918045;28;98484;-60
2021/09/27 06:10:44;;;;;;;11.80;10.60;;;;;;;17.02;71.88;100835.59;4910564;28;117278;-60
2021/09/27 06:13:26;;;;;;;11.63;10.43;;;;;;;17.08;71.73;100834.38;4914370;28;98419;-60
2021/09/27 06:16:15;;;;;;;;;;;;;;;17.14;71.30;100838.63;4918021;28;98131;-60
2021/09/27 06:19:05;;;;;;;11.48;10.38;;;;;;;17.17;71.63;100838.00;4897682;28;97909;-61
2021/09/27 06:22:09;;;;;;;12.60;11.02;;;;;;;17.25;72.05;100836.47;4915296;28;113665;-61
2021/09/27 06:25:17;;;;;;;12.27;10.70;;;;;;;17.36;71.53;100837.88;4912201;28;97868;-60
2021/09/27 06:28:07;;;;;;;12.25;10.95;;;;;;;17.46;71.70;100826.00;4918695;28;97938;-60
2021/09/27 06:30:51;;;;;;;12.18;10.75;;;;;;;17.55;71.72;100835.84;4915981;28;98828;-60
2021/09/27 06:33:29;;;;;;;12.43;11.13;;;;;;;17.67;71.32;100838.06;4914902;28;98774;-60
2021/09/27 06:35:56;;;;;;;13.82;12.43;;;;;;;17.77;71.29;100850.72;4918195;28;98348;-60
2021/09/27 06:38:32;;;;;;;13.68;12.38;;;;;;;17.84;71.01;100841.00;4900510;28;98149;-61
2021/09/27 06:40:59;;;;;;;12.55;11.32;;;;;;;17.93;70.97;100838.34;4900600;28;98774;-60
2021/09/27 06:43:25;;;;;;;12.60;11.40;;;;;;;18.03;70.81;100834.56;4899274;28;98936;-60
2021/09/27 06:45:52;;;;;;;12.23;11.07;;;;;;;18.14;70.52;100844.13;4918003;28;98430;-60
2021/09/27 06:48:19;;;;;;;11.77;10.55;;;;;;;18.24;70.59;100846.63;4918481;28;97766;-60
2021/09/27 06:50:45;;;;;;;11.82;10.63;;;;;;;18.32;70.37;100856.00;4917599;28;97948;-60
2021/09/27 06:53:11;;;;;;;12.10;10.98;;;;;;;18.39;70.14;100856.34;4917609;28;98510;-60
2021/09/27 06:55:37;;;;;;;12.52;11.23;;;;;;;18.49;69.99;100847.91;4917348;28;98067;-62
2021/09/27 06:58:03;;;;;;;11.75;10.55;;;;;;;18.61;69.98;100850.06;4916752;28;118926;-60
2021/09/27 07:00:31;;;;;;;11.55;10.40;;;;;;;18.71;69.71;100851.78;4918162;28;98998;-60
2021/09/27 07:02:57;;;;;;;11.15;10.05;;;;;;;18.77;69.47;100848.59;4908135;28;98152;-60
2021/09/27 07:05:23;;;;;;;11.70;10.38;;;;;;;18.83;69.34;100843.81;4899027;28;116904;-60
2021/09/27 07:07:49;;;;;;;12.00;10.57;;;;;;;18.88;69.51;100849.94;4917103;28;115413;-60
2021/09/27 07:10:19;;;;;;;11.63;9.85;;;;;;;18.95;69.15;100843.22;4917465;28;126076;-61
2021/09/27 07:12:45;;;;;;;12.35;10.95;;;;;;;19.06;69.22;100839.06;4916939;28;112006;-60
2021/09/27 07:15:12;;;;;;;12.15;10.02;;;;;;;19.17;69.09;100843.16;4916715;28;128418;-60
2021/09/27 07:17:38;;;;;;;11.65;10.13;;;;;;;19.30;68.86;100841.44;4917821;28;97726;-61
2021/09/27 07:20:13;;;;;;;12.52;9.82;;;;;;;19.41;68.76;100839.19;4917420;28;98906;-60
2021/09/27 07:22:39;;;;;;;11.73;10.50;;;;;;;19.58;68.38;100829.13;4915282;28;99643;-61
2021/09/27 07:25:07;;;;;;;12.40;10.60;;;;;;;19.72;68.05;100825.47;4910352;28;98315;-60
2021/09/27 07:27:34;;;;;;;11.55;10.35;;;;;;;19.82;68.00;100828.69;4899704;28;98146;-61
2021/09/27 07:30:00;;;;;;;12.18;10.48;;;;;;;19.90;67.58;100823.56;4915547;28;118039;-61
2021/09/27 07:32:26;;;;;;;11.27;10.07;;;;;;;19.95;67.71;100826.94;4897945;28;121852;-60
2021/09/27 07:34:52;;;;;;;10.93;9.82;;;;;;;20.04;67.39;100830.50;4898728;28;98368;-61
2021/09/27 07:37:19;;;;;;;11.38;10.18;;;;;;;20.14;67.46;100823.06;4916847;28;117591;-60
2021/09/27 07:39:45;;;;;;;10.20;9.20;;;;;;;20.27;67.12;100816.63;4916317;28;123080;-60
2021/09/27 07:42:11;;;;;;;11.50;10.02;;;;;;;20.38;66.98;100826.09;4916322;28;126991;-61
2021/09/27 07:44:37;;;;;;;10.35;8.90;;;;;;;20.44;66.47;100824.81;4917126;28;98296;-61
2021/09/27 07:47:04;;;;;;;9.95;8.95;;;;;;;20.50;66.53;100829.00;4918037;28;98003;-60
2021/09/27 07:49:30;;;;;;;9.32;8.13;;;;;;;;;;4916886;28;119550;-61
2021/09/27 07:51:57;;;;;;;12.90;9.25;;;;;;;20.55;66.69;100826.13;4917595;28;98494;-61
2021/09/27 07:54:24;;;;;;;10.40;8.25;;;;;;;20.53;66.59;100817.41;4917185;28;98589;-61
2021/09/27 07:56:50;;;;;;;9.00;8.10;;;;;;;20.53;66.64;100822.09;4917289;28;97986;-61
2021/09/27 07:59:16;;;;;;;9.57;8.52;;;;;;;20.49;67.05;100816.44;4918347;28;98699;-60
2021/09/27 08:01:42;;;;;;;9.55;8.55;;;;;;;20.47;66.66;100818.66;4916069;28;128852;-60
2021/09/27 08:04:15;;;;;;;8.82;7.93;;;;;;;20.49;67.10;100813.72;4917113;28;128412;-61
2021/09/27 08:06:41;;;;;;;9.35;8.35;;;;;;;20.56;66.64;100807.75;4920843;28;98122;-60
2021/09/27 08:09:09;;;;;;;11.27;8.13;;;;;;;20.63;66.38;100802.53;4920058;28;118392;-61
2021/09/27 08:11:36;;;;;;;8.82;7.80;;;;;;;20.68;66.26;100798.84;4920861;28;98253;-60
2021/09/27 08:14:02;;;;;;;8.70;7.90;;;;;;;20.72;66.31;100797.88;4919765;28;117902;-61
2021/09/27 08:16:31;;;;;;;9.60;8.10;;;;;;;20.76;65.82;100804.28;4919221;28;117699;-60
2021/09/27 08:18:57;;;;;;;8.35;7.50;;;;;;;20.78;65.84;100798.47;4920725;28;98476;-60
2021/09/27 08:21:23;;;;;;;9.05;7.50;;;;;;;20.79;65.85;100797.38;4917456;28;113869;-60
2021/09/27 08:23:49;;;;;;;9.70;8.70;;;;;;;21.00;65.38;100790.00;4913785;28;98142;-60
2021/09/27 08:26:16;;;;;;;9.48;8.05;;;;;;;21.57;63.72;100788.72;4920616;28;97782;-61
2021/09/27 08:28:43;;;;;;;8.52;7.72;;;;;;;21.38;64.34;100796.59;4918246;28;112930;-61
2021/09/27 08:31:15;;;;;;;9.48;8.48;;;;;;;21.43;64.26;100790.94;4919818;28;99054;-60
2021/09/27 08:33:42;;;;;;;7.88;7.07;;;;;;;21.44;64.09;100800.78;4919723;28;98245;-60
2021/09/27 08:36:10;;;;;;;7.97;7.18;;;;;;;21.39;64.26;100804.50;4918999;28;118558;-60
2021/09/27 08:38:37;;;;;;;8.48;7.38;;;;;;;21.30;64.29;100807.28;4919909;28;98729;-60
2021/09/27 08:41:18;;;;;;;8.45;7.55;;;;;;;21.25;64.65;100799.22;4920725;28;98551;-60
2021/09/27 08:44:25;;;;;;;7.72;6.75;;;;;;;21.15;64.66;100802.34;4920177;28;98568;-60
2021/09/27 08:46:57;;;;;;;8.00;7.20;;;;;;;21.05;64.83;100798.03;4945269;28;98108;-61
2021/09/27 08:49:50;;;;;;;7.40;6.70;;;;;;;21.01;64.95;100799.84;4886774;28;98369;-61
2021/09/27 08:52:18;;;;;;;8.30;7.38;;;;;;;21.07;64.84;100805.94;4902073;28;108224;-61
2021/09/27 08:54:46;;;;;;;8.57;6.78;;;;;;;21.23;64.27;100811.66;4917770;28;98150;-60
2021/09/27 08:57:40;;;;;;;8.00;6.93;;;;;;;21.80;62.89;100811.94;4918164;28;99297;-60
2021/09/27 09:00:15;;;;;;;7.78;6.63;;;;;;;22.28;61.76;100812.53;4917786;28;111035;-61
2021/09/27 09:03:07;;;;;;;7.50;6.78;;;;;;;22.81;60.39;100816.34;4917615;28;98392;-61
2021/09/27 09:06:09;;;;;;;6.93;6.22;;;;;;;22.64;60.67;100816.56;4917985;28;97966;-60
2021/09/27 09:08:47;;;;;;;7.75;7.05;;;;;;;22.60;61.19;100821.09;4915956;28;98413;-60
2021/09/27 09:11:31;;;;;;;7.97;7.18;;;;;;;22.73;61.09;100818.06;4919354;28;103881;-62
2021/09/27 09:14:04;;;;;;;7.38;6.50;;;;;;;22.82;60.66;100822.63;4918123;28;99004;-61
2021/09/27 09:16:30;;;;;;;6.95;6.25;;;;;;;22.91;60.02;100821.44;4901273;28;98081;-61
2021/09/27 09:19:00;;;;;;;7.40;6.70;;;;;;;22.93;60.23;100824.63;4901191;28;118118;-60
2021/09/27 09:21:38;;;;;;;7.75;6.22;;;;;;;23.10;60.40;100826.34;4918673;28;112929;-60
2021/09/27 09:24:09;;;;;;;7.13;6.18;;;;;;;23.21;59.69;100826.72;4917531;28;99508;-61
2021/09/27 09:26:38;;;;;;;6.63;5.67;;;;;;;23.37;59.28;100824.06;4916346;28;100072;-61
2021/09/27 09:29:05;;;;;;;6.38;5.78;;;;;;;23.50;58.74;100826.47;4918936;28;104855;-60
2021/09/27 09:31:35;;;;;;;6.43;5.75;;;;;;;23.59;58.55;100823.59;4918816;28;98987;-61
2021/09/27 09:34:19;;;;;;;6.30;5.70;;;;;;;23.62;58.64;100831.16;4901176;28;98620;-61
2021/09/27 09:36:48;;;;;;;6.32;5.80;;;;;;;23.60;58.10;100827.13;4918597;28;98882;-61
2021/09/27 09:39:39;;;;;;;6.25;5.65;;;;;;;23.56;58.83;100829.78;4919381;28;107798;-61
2021/09/27 09:42:24;;;;;;;6.27;5.67;;;;;;;23.48;58.40;100826.00;4918486;28;98406;-61
2021/09/27 09:44:53;;;;;;;6.15;5.55;;;;;;;23.52;58.50;100826.91;4918933;28;99298;-61
2021/09/27 09:47:21;;;;;;;6.43;5.63;;;;;;;23.60;58.33;100830.69;4918497;28;98010;-60
2021/09/27 09:50:29;;;;;;;6.82;6.13;;;;;;;23.81;58.13;100821.50;4919083;28;97941;-60
2021/09/27 09:52:59;;;;;;;9.52;7.60;;;;;;;23.90;57.19;100817.47;4917007;28;97994;-61
2021/09/27 09:55:42;;;;;;;7.40;6.80;;;;;;;23.99;57.19;100817.31;4917225;28;98339;-60
2021/09/27 09:58:28;;;;;;;6.43;5.82;;;;;;;24.08;57.29;100820.72;4916622;28;98174;-60
2021/09/27 10:00:54;;;;;;;6.53;5.65;;;;;;;24.04;57.21;100821.75;4918590;28;97901;-61
2021/09/27 10:03:29;;;;;;;6.00;5.50;;;;;;;24.05;56.60;100815.94;4918739;28;98003;-60
2021/09/27 10:06:32;;;;;;;6.93;5.93;;;;;;;24.15;56.86;100815.41;4917380;28;99214;-61
2021/09/27 10:08:59;;;;;;;6.70;6.05;;;;;;;24.21;56.53;100824.25;4913821;28;98094;-61
2021/09/27 10:11:42;;;;;;;6.90;6.30;;;;;;;24.22;56.86;100815.63;4900489;28;98235;-60
2021/09/27 10:14:28;;;;;;;7.18;6.15;;;;;;;24.23;57.14;100821.91;4909227;28;118385;-61
2021/09/27 10:16:56;;;;;;;6.70;5.97;;;;;;;24.24;56.68;100820.75;4914147;28;98714;-61
2021/09/27 10:19:42;;;;;;;6.53;5.90;;;;;;;24.23;57.04;100821.91;4917925;28;98798;-61
2021/09/27 10:22:12;;;;;;;8.35;6.28;;;;;;;24.05;57.13;100818.69;4918938;28;98763;-61
2021/09/27 10:24:45;;;;;;;6.43;5.82;;;;;;;23.93;56.87;100824.19;4918079;28;110563;-61
2021/09/27 10:27:49;;;;;;;7.35;6.10;;;;;;;23.86;57.64;100818.50;4918140;28;106745;-62
2021/09/27 10:30:19;;;;;;;6.95;6.22;;;;;;;23.86;57.17;100818.50;4917357;28;99528;-61
2021/09/27 10:32:50;;;;;;;7.03;6.30;;;;;;;24.00;57.12;100818.91;4917664;28;105595;-61
2021/09/27 10:35:35;;;;;;;6.63;6.00;;;;;;;24.53;55.98;100816.06;4916308;28;107924;-61
2021/09/27 10:38:06;;;;;;;6.53;5.93;;;;;;;24.92;54.77;100817.88;4910928;28;99943;-61
2021/09/27 10:40:33;;;;;;;6.30;5.50;;;;;;;25.27;54.10;100819.94;4917252;28;98060;-61
2021/09/27 10:42:59;;;;;;;7.45;6.75;;;;;;;25.47;53.40;100815.25;4901198;28;98041;-61
2021/09/27 10:45:26;;;;;;;7.78;6.90;;;;;;;25.73;52.77;100817.38;4915025;28;127911;-61
2021/09/27 10:47:54;;;;;;;7.28;6.57;;;;;;;25.55;52.88;100822.53;4899703;28;98450;-61
2021/09/27 10:50:33;;;;;;;7.75;6.95;;;;;;;25.46;53.37;100827.44;4900385;28;98049;-62
2021/09/27 10:53:33;;;;;;;7.35;6.63;;;;;;;25.40;53.64;100826.91;4913671;28;98209;-61
2021/09/27 10:56:40;;;;;;;6.85;6.25;;;;;;;25.24;54.31;100828.13;4916551;28;98974;-60
2021/09/27 10:59:13;;;;;;;7.90;7.20;;;;;;;24.98;54.26;100823.91;4917336;28;116877;-61
2021/09/27 11:02:17;;;;;;;9.40;8.52;;;;;;;24.70;54.89;100832.25;4916727;28;98009;-61
2021/09/27 11:04:45;;;;;;;9.27;8.38;;;;;;;24.38;55.61;100834.13;4916421;28;97798;-61
2021/09/27 11:07:47;;;;;;;8.90;8.00;;;;;;;24.28;55.94;100826.38;4899892;28;98841;-61
2021/09/27 11:10:29;;;;;;;;;;;;;;;24.52;55.42;100823.50;4902800;28;98573;-61
2021/09/27 11:12:55;;;;;;;8.40;7.60;;;;;;;24.57;54.88;100823.28;4912769;28;98129;-60
2021/09/27 11:15:31;;;;;;;8.55;7.75;;;;;;;24.78;54.63;100817.50;4916874;28;111313;-60
2021/09/27 11:18:25;;;;;;;8.25;7.38;;;;;;;25.19;53.79;100812.63;4899235;28;98500;-61
2021/09/27 11:20:51;;;;;;;7.93;7.20;;;;;;;25.16;53.34;100814.16;4898188;28;111300;-61
2021/09/27 11:23:32;;;;;;;7.82;7.13;;;;;;;25.11;53.82;100813.59;4916971;28;98121;-61
2021/09/27 11:26:15;;;;;;;7.90;7.10;;;;;;;25.06;53.77;100803.63;4915903;28;98091;-61
2021/09/27 11:28:51;;;;;;;9.80;7.38;;;;;;;24.94;54.05;100804.50;4913839;28;98327;-61
2021/09/27 11:31:18;;;;;;;9.13;7.03;;;;;;;24.88;53.52;100800.44;4916095;28;113539;-61
2021/09/27 11:33:50;;;;;;;7.43;6.72;;;;;;;24.85;53.61;100803.13;4916377;28;111734;-61
2021/09/27 11:36:43;;;;;;;7.60;6.63;;;;;;;24.93;53.83;100802.13;4915740;28;98082;-62
2021/09/27 11:39:16;;;;;;;7.15;6.45;;;;;;;24.82;53.93;100806.56;4914570;28;118553;-62
2021/09/27 11:42:22;;;;;;;7.43;6.72;;;;;;;24.71;53.88;100798.81;4920024;28;98427;-61
2021/09/27 11:44:59;;;;;;;7.15;6.47;;;;;;;24.74;54.05;100797.31;4917438;28;98098;-62
2021/09/27 11:47:41;;;;;;;6.80;6.10;;;;;;;25.22;52.95;100798.13;4917276;28;98283;-60
2021/09/27 11:50:26;;;;;;;7.85;6.00;;;;;;;25.66;52.29;100798.72;4917835;28;98255;-61
2021/09/27 11:52:57;;;;;;;5.45;4.95;;;;;;;25.93;51.39;100799.69;4917409;28;98406;-61
2021/09/27 11:55:38;;;;;;;5.93;5.20;;;;;;;25.93;51.44;100799.69;4901972;28;98039;-61
2021/09/27 11:58:23;;;;;;;5.80;5.30;;;;;;;25.88;51.70;100791.72;4948003;28;98092;-61
2021/09/27 12:00:59;;;;;;;5.72;5.22;;;;;;;25.79;51.41;100785.63;4902253;28;98891;-61
2021/09/27 12:03:39;;;;;;;7.05;5.95;;;;;;;25.68;51.51;100779.84;4900769;28;111872;-61
2021/09/27 12:06:21;;;;;;;6.40;5.80;;;;;;;25.54;51.91;100778.72;4916661;28;98270;-61
2021/09/27 12:09:02;;;;;;;7.38;5.97;;;;;;;25.43;52.18;100778.50;4918189;28;97991;-61
2021/09/27 12:11:28;;;;;;;7.30;6.53;;;;;;;25.42;51.88;100774.94;4917086;28;116279;-61
2021/09/27 12:14:00;;;;;;;6.88;6.28;;;;;;;25.44;52.28;100767.09;4918235;28;127836;-61
2021/09/27 12:16:32;;;;;;;;;;;;;;;25.61;52.00;100771.41;4916787;28;98002;-61
2021/09/27 12:19:02;;;;;;;6.10;5.50;;;;;;;25.54;51.78;100775.97;4918905;28;110977;-62
2021/09/27 12:21:57;;;;;;;6.78;6.07;;;;;;;25.60;52.38;100769.81;4918904;28;98799;-61